Time;durP1;ratioP1;P1;durP2;ratioP2;P2;SDS_P1;SDS_P2;PMS_P1;PMS_P2;Temp;Humidity;BMP_temperature;BMP_pressure;BME280_temperature;BME280_humidity;BME280_pressure;Samples;Min_cycle;Max_cycle;Signal;HPM_P1;HPM_P2
2023/12/22 08:00:20;;;;;;;;;0.00;0.00;;;;;20.60;47.70;101334.06;5337984;23;46788;-72
2023/12/22 08:02:46;;;;;;;;;0.00;0.00;;;;;20.64;47.85;101339.84;4934148;28;45489;-71
2023/12/22 08:05:11;;;;;;;;;0.00;0.00;;;;;20.61;47.92;101340.16;4937080;28;45306;-70
2023/12/22 08:07:36;;;;;;;;;0.00;0.00;;;;;20.58;47.74;101340.50;4937100;28;45590;-73
2023/12/22 08:10:03;;;;;;;;;1.33;0.00;;;;;20.59;47.54;101344.78;4937099;28;45315;-72
2023/12/22 08:12:28;;;;;;;;;0.67;0.67;;;;;20.60;47.76;101327.94;4937385;28;45287;-72
2023/12/22 08:14:54;;;;;;;;;0.00;0.00;;;;;20.61;47.74;101346.28;4937531;28;45398;-72
2023/12/22 08:17:19;;;;;;;;;0.00;0.00;;;;;20.62;47.84;101358.53;4937009;28;46140;-72
2023/12/22 08:19:45;;;;;;;;;0.00;0.00;;;;;20.61;48.14;101367.44;4937141;28;45355;-72
2023/12/22 08:22:10;;;;;;;;;0.67;0.00;;;;;20.60;47.69;101370.25;4936920;28;45357;-72
2023/12/22 08:24:36;;;;;;;;;0.00;0.00;;;;;20.50;47.85;101365.06;4937440;28;45457;-72
2023/12/22 08:27:01;;;;;;;;;0.00;0.00;;;;;20.55;47.66;101378.66;4937366;28;45457;-72
2023/12/22 08:29:27;;;;;;;;;0.00;0.00;;;;;20.61;47.73;101385.09;4938803;28;45298;-72
2023/12/22 08:31:53;;;;;;;;;0.00;0.00;;;;;20.60;47.98;101386.94;4943001;28;45262;-72
2023/12/22 08:34:18;;;;;;;;;0.00;0.00;;;;;20.59;47.88;101384.44;4943896;28;45463;-72
2023/12/22 08:36:44;;;;;;;;;0.67;0.67;;;;;20.61;47.69;101380.66;4942889;28;45594;-72
2023/12/22 08:39:10;;;;;;;;;0.00;0.00;;;;;20.60;47.86;101381.66;4943815;28;45446;-72
2023/12/22 08:41:37;;;;;;;;;0.00;0.00;;;;;20.55;47.90;101381.31;4943875;28;45393;-72
2023/12/22 08:44:05;;;;;;;;;0.33;0.33;;;;;20.60;47.83;101379.00;4943429;28;45366;-72
2023/12/22 08:46:30;;;;;;;;;0.33;0.00;;;;;20.61;47.90;101391.22;4943092;28;45416;-72
2023/12/22 08:48:56;;;;;;;;;0.00;0.00;;;;;20.59;47.71;101392.38;4943317;28;45315;-72
2023/12/22 08:51:22;;;;;;;;;2.00;0.33;;;;;20.60;47.54;101389.59;4943608;28;45284;-72
2023/12/22 08:53:47;;;;;;;;;0.00;0.00;;;;;20.60;47.93;101405.44;4943664;28;46542;-72
2023/12/22 08:56:12;;;;;;;;;0.00;0.00;;;;;20.58;47.93;101403.94;4943364;28;46490;-72
2023/12/22 08:58:38;;;;;;;;;0.00;0.00;;;;;20.60;47.95;101412.53;4943354;28;45669;-73
2023/12/22 09:01:03;;;;;;;;;2.33;0.00;;;;;20.59;47.58;101424.94;4942477;28;46397;-72
2023/12/22 09:03:32;;;;;;;;;0.67;0.00;;;;;20.56;47.45;101403.25;4943301;28;45499;-73
2023/12/22 09:05:57;;;;;;;;;0.00;0.00;;;;;20.61;47.96;101409.75;4943327;28;45394;-73
2023/12/22 09:08:22;;;;;;;;;0.67;0.67;;;;;20.58;47.68;101404.75;4943138;28;45419;-72
2023/12/22 09:10:49;;;;;;;;;0.67;0.00;;;;;20.57;47.45;101391.69;4943390;28;45363;-73
2023/12/22 09:13:15;;;;;;;;;0.00;0.00;;;;;20.63;47.82;101393.72;4943325;28;45287;-73
2023/12/22 09:15:41;;;;;;;;;0.00;0.00;;;;;20.63;47.72;101383.97;4941357;28;46276;-73
2023/12/22 09:18:06;;;;;;;;;1.67;0.67;;;;;20.60;47.71;101402.81;4943094;28;45439;-73
2023/12/22 09:20:32;;;;;;;;;0.00;0.00;;;;;20.54;47.89;101389.38;4943118;28;45375;-73
2023/12/22 09:22:57;;;;;;;;;0.00;0.00;;;;;20.56;47.62;101388.22;4943331;28;45326;-73
2023/12/22 09:25:23;;;;;;;;;1.00;0.67;;;;;20.63;47.84;101404.31;4942752;28;53636;-74
2023/12/22 09:27:49;;;;;;;;;0.00;0.00;;;;;20.62;47.46;101405.28;4941625;28;45407;-73
2023/12/22 09:30:14;;;;;;;;;0.33;0.33;;;;;20.60;47.88;101400.16;4942595;28;45488;-73
2023/12/22 09:32:40;;;;;;;;;0.00;0.00;;;;;20.54;47.95;101394.66;4942931;28;45387;-73
2023/12/22 09:35:05;;;;;;;;;0.67;0.00;;;;;20.55;48.03;101399.81;4942814;28;45363;-73
2023/12/22 09:37:31;;;;;;;;;0.67;0.00;;;;;20.60;47.84;101412.53;4942879;28;45350;-73
2023/12/22 09:39:56;;;;;;;;;0.33;0.33;;;;;20.62;47.67;101419.34;4942945;28;45441;-73
2023/12/22 09:42:25;;;;;;;;;0.33;0.00;;;;;20.61;47.44;101406.25;4939016;28;45509;-73
2023/12/22 09:44:55;;;;;;;;;1.00;0.00;;;;;20.63;47.63;101426.25;4939227;28;46556;-73
2023/12/22 09:47:22;;;;;;;;;0.00;0.00;;;;;20.65;47.72;101434.06;4939326;28;45424;-73
2023/12/22 09:49:48;;;;;;;;;0.00;0.00;;;;;20.61;47.60;101427.41;4939620;28;45368;-73
2023/12/22 09:52:16;;;;;;;;;0.00;0.00;;;;;20.58;47.54;101430.38;4939217;28;45694;-73
2023/12/22 09:54:43;;;;;;;;;0.00;0.00;;;;;20.66;47.65;101441.00;4939247;28;47060;-73
2023/12/22 09:57:09;;;;;;;;;0.33;0.00;;;;;20.62;47.83;101429.09;4939413;28;45443;-73
2023/12/22 09:59:35;;;;;;;;;0.00;0.00;;;;;20.61;47.58;101436.19;4939136;28;45483;-73
2023/12/22 10:02:04;;;;;;;;;0.33;0.33;;;;;20.38;47.71;101393.56;4939193;28;47500;-73
2023/12/22 10:04:30;;;;;;;;;0.67;0.00;;;;;20.66;47.89;101440.19;4938332;28;46195;-71
2023/12/22 10:07:00;;;;;;;;;1.00;1.00;;;;;20.63;48.04;101450.06;4939070;28;45320;-71
2023/12/22 10:09:26;;;;;;;;;0.33;0.33;;;;;20.57;47.68;101437.47;4939483;28;45346;-74
2023/12/22 10:11:53;;;;;;;;;0.00;0.00;;;;;20.65;47.58;101447.28;4938788;28;45525;-73
2023/12/22 10:14:22;;;;;;;;;0.00;0.00;;;;;20.63;47.64;101462.47;4938819;28;45591;-73
2023/12/22 10:16:51;;;;;;;;;0.00;0.00;;;;;20.66;47.91;101453.41;4939076;28;45421;-73
2023/12/22 10:19:17;;;;;;;;;0.00;0.00;;;;;20.58;47.88;101452.34;4939237;28;45287;-73
2023/12/22 10:21:42;;;;;;;;;0.00;0.00;;;;;20.65;48.06;101441.16;4954035;28;45750;-73
2023/12/22 10:24:42;;;;;;;;;0.00;0.00;;;;;20.65;47.66;101478.19;4938801;28;47329;-73
2023/12/22 10:27:07;;;;;;;;;0.00;0.00;;;;;20.65;47.78;101467.59;4938653;28;45447;-70
2023/12/22 10:29:33;;;;;;;;;0.00;0.00;;;;;20.64;47.66;101456.19;4938937;28;45628;-71
2023/12/22 10:32:01;;;;;;;;;2.67;0.00;;;;;20.65;47.56;101457.03;4938725;28;45426;-70
2023/12/22 10:34:27;;;;;;;;;1.67;0.00;;;;;20.57;48.26;101445.41;4937767;28;45373;-71
2023/12/22 10:36:52;;;;;;;;;0.00;0.00;;;;;20.62;47.89;101453.72;4939155;28;46116;-71
2023/12/22 10:39:17;;;;;;;;;0.00;0.00;;;;;20.53;47.83;101422.94;4939012;28;45279;-71
2023/12/22 10:41:43;;;;;;;;;0.00;0.00;;;;;20.62;48.07;101451.06;4938842;28;45354;-70
2023/12/22 10:44:09;;;;;;;;;0.00;0.00;;;;;20.60;48.07;101453.03;4938866;28;46185;-71
2023/12/22 10:46:35;;;;;;;;;0.67;0.00;;;;;20.66;48.23;101456.84;4938922;28;45276;-71
2023/12/22 10:49:04;;;;;;;;;1.00;0.00;;;;;20.61;47.94;101443.28;4939001;28;45503;-71
2023/12/22 10:51:32;;;;;;;;;0.00;0.00;;;;;20.67;48.01;101452.41;4938759;28;45493;-70
2023/12/22 10:53:57;;;;;;;;;0.00;0.00;;;;;20.65;47.85;101444.63;4938268;28;47107;-71
2023/12/22 10:56:23;;;;;;;;;0.00;0.00;;;;;20.69;47.88;101456.53;4938411;28;45332;-70
2023/12/22 10:58:48;;;;;;;;;0.33;0.00;;;;;20.68;47.81;101454.91;4938754;28;45198;-71
2023/12/22 11:01:15;;;;;;;;;2.33;0.00;;;;;20.69;47.57;101464.47;4938600;28;45434;-71
2023/12/22 11:03:44;;;;;;;;;0.33;0.33;;;;;20.69;48.02;101447.78;4938390;28;47174;-71
2023/12/22 11:06:14;;;;;;;;;0.00;0.00;;;;;20.61;47.53;101432.69;4938486;28;45542;-71
2023/12/22 11:08:41;;;;;;;;;0.00;0.00;;;;;20.60;47.85;101426.59;4938645;28;45437;-70
2023/12/22 11:11:16;;;;;;;;;2.00;0.67;;;;;20.69;48.01;101429.28;4938317;28;45437;-72
2023/12/22 11:13:43;;;;;;;;;1.00;1.00;;;;;20.60;47.71;101425.75;4938313;28;45376;-71
2023/12/22 11:16:09;;;;;;;;;3.33;0.00;;;;;20.70;47.64;101444.16;4938121;28;45409;-71
2023/12/22 11:18:36;;;;;;;;;0.67;0.00;;;;;20.67;47.61;101433.88;4938588;28;45382;-71
2023/12/22 11:21:05;;;;;;;;;0.67;0.00;;;;;20.67;48.00;101429.44;4938358;28;45335;-71
2023/12/22 11:23:33;;;;;;;;;1.00;1.00;;;;;20.66;47.62;101437.53;4938221;28;46209;-71
2023/12/22 11:25:59;;;;;;;;;0.33;0.00;;;;;20.65;47.98;101428.78;4937866;28;45441;-71
2023/12/22 11:28:25;;;;;;;;;0.33;0.33;;;;;20.63;48.00;101428.09;4938304;28;45440;-72
2023/12/22 11:30:52;;;;;;;;;0.67;0.00;;;;;20.64;48.14;101424.47;4938238;28;45421;-71
2023/12/22 11:33:17;;;;;;;;;0.00;0.00;;;;;20.65;47.62;101435.88;4938010;28;46002;-71
2023/12/22 11:35:44;;;;;;;;;1.00;1.00;;;;;20.56;47.69;101412.03;4938157;28;45380;-71
2023/12/22 11:38:11;;;;;;;;;0.33;0.00;;;;;20.66;48.06;101427.78;4938252;28;45319;-71
2023/12/22 11:40:36;;;;;;;;;2.33;0.00;;;;;20.66;47.47;101424.31;4937775;28;45338;-72
2023/12/22 11:43:03;;;;;;;;;0.67;0.00;;;;;20.66;47.57;101429.59;4938015;28;46267;-71
2023/12/22 11:45:31;;;;;;;;;0.67;0.00;;;;;20.60;47.96;101423.13;4937937;28;45579;-72
2023/12/22 11:47:56;;;;;;;;;1.33;0.00;;;;;20.65;47.54;101428.78;4938055;28;45395;-71
2023/12/22 11:50:29;;;;;;;;;3.00;0.00;;;;;20.66;47.71;101430.41;4938050;28;45398;-71
2023/12/22 11:52:55;;;;;;;;;0.00;0.00;;;;;20.66;47.54;101426.97;4937788;28;46542;-70
2023/12/22 11:56:09;;;;;;;;;0.00;0.00;;;;;20.62;47.43;101432.56;4937493;28;45351;-70
2023/12/22 11:58:51;;;;;;;;;1.00;0.00;;;;;20.66;47.82;101442.81;4936194;28;45318;-71
2023/12/22 12:01:18;;;;;;;;;2.00;0.33;;;;;20.68;47.58;101433.75;4937701;28;45587;-71
2023/12/22 12:03:51;;;;;;;;;1.00;1.00;;;;;20.68;47.60;101431.09;4936951;28;45361;-71
2023/12/22 12:06:26;;;;;;;;;0.00;0.00;;;;;20.69;47.88;101423.97;4937614;28;45271;-71
2023/12/22 12:08:53;;;;;;;;;1.33;0.00;;;;;20.70;48.05;101428.28;4937526;28;45421;-71
2023/12/22 12:11:19;;;;;;;;;1.00;1.00;;;;;20.69;47.80;101430.09;4937660;28;45438;-71
2023/12/22 12:13:46;;;;;;;;;0.67;0.00;;;;;20.70;47.71;101428.28;4937450;28;46426;-71
2023/12/22 12:16:13;;;;;;;;;2.00;0.00;;;;;20.69;47.93;101435.41;4937537;28;45443;-71
2023/12/22 12:18:39;;;;;;;;;0.00;0.00;;;;;20.70;47.61;101421.19;4937745;28;45357;-71
2023/12/22 12:21:07;;;;;;;;;0.33;0.33;;;;;20.65;47.73;101420.84;4937582;28;45204;-71
2023/12/22 12:23:33;;;;;;;;;2.00;0.67;;;;;20.67;47.51;101426.78;4937038;28;46202;-72
2023/12/22 12:25:59;;;;;;;;;2.00;1.00;;;;;20.67;47.42;101433.88;4936096;28;45473;-71
2023/12/22 12:28:26;;;;;;;;;0.67;0.67;;;;;20.62;47.43;101435.19;4937600;28;45354;-71
2023/12/22 12:31:01;;;;;;;;;0.33;0.00;;;;;20.57;47.85;101404.91;4937576;28;45453;-71
2023/12/22 12:33:27;;;;;;;;;0.00;0.00;;;;;20.60;47.84;101418.66;4937009;28;46043;-71
2023/12/22 12:35:57;;;;;;;;;0.33;0.00;;;;;20.67;47.51;101434.72;4937339;28;45402;-71
2023/12/22 12:38:36;;;;;;;;;0.00;0.00;;;;;20.67;47.56;101426.78;4937056;28;45306;-70
2023/12/22 12:41:05;;;;;;;;;0.00;0.00;;;;;20.67;47.71;101453.25;4937261;28;45524;-71
2023/12/22 12:43:30;;;;;;;;;0.00;0.00;;;;;20.68;47.72;101435.56;4936990;28;46409;-71
2023/12/22 12:45:55;;;;;;;;;1.00;0.00;;;;;20.68;47.36;101439.03;4936367;28;63717;-71
2023/12/22 12:48:21;;;;;;;;;0.00;0.00;;;;;20.68;47.40;101446.97;4936906;28;54068;-71
2023/12/22 12:50:47;;;;;;;;;1.33;0.00;;;;;20.69;47.37;101440.69;4937241;28;45520;-71
2023/12/22 12:53:13;;;;;;;;;0.00;0.00;;;;;20.69;47.38;101438.03;4936689;28;46181;-71
2023/12/22 12:55:39;;;;;;;;;2.00;0.00;;;;;20.67;47.89;101434.72;4937062;28;45399;-71
2023/12/22 12:58:04;;;;;;;;;0.33;0.33;;;;;20.69;47.40;101439.84;4937226;28;45359;-70
2023/12/22 13:00:31;;;;;;;;;1.33;0.00;;;;;20.68;47.30;101454.91;4937026;28;45466;-70
2023/12/22 13:03:02;;;;;;;;;0.00;0.00;;;;;20.69;47.47;101461.00;4936875;28;47300;-70
2023/12/22 13:05:28;;;;;;;;;0.00;0.00;;;;;20.67;47.77;101452.41;4936917;28;46179;-71
2023/12/22 13:08:07;;;;;;;;;2.00;0.00;;;;;20.67;47.73;101457.69;4936673;28;45326;-72
2023/12/22 13:10:32;;;;;;;;;0.67;0.00;;;;;20.66;47.29;101454.22;4937092;28;45311;-70
2023/12/22 13:12:58;;;;;;;;;0.00;0.00;;;;;20.66;47.11;101458.69;4936774;28;45276;-70
2023/12/22 13:15:23;;;;;;;;;2.00;0.00;;;;;20.67;47.43;101465.63;4934930;28;46073;-71
2023/12/22 13:17:49;;;;;;;;;2.00;0.00;;;;;20.63;47.51;101458.00;4938990;28;45346;-71
2023/12/22 13:20:15;;;;;;;;;0.50;0.50;;;;;20.66;47.89;101453.41;4939602;28;45426;-70
2023/12/22 13:22:40;;;;;;;;;3.00;0.00;;;;;20.63;47.32;101471.22;4939950;28;46407;-72
2023/12/22 13:25:06;;;;;;;;;0.00;0.00;;;;;20.65;47.44;101454.38;4938403;28;45264;-70
2023/12/22 13:27:44;;;;;;;;;1.00;0.33;;;;;20.65;47.64;101463.16;4940112;28;45384;-72
2023/12/22 13:30:09;;;;;;;;;0.00;0.00;;;;;20.62;47.89;101450.22;4939954;28;45295;-71
2023/12/22 13:32:35;;;;;;;;;0.33;0.00;;;;;20.54;47.72;101458.09;4939649;28;46182;-72
2023/12/22 13:35:00;;;;;;;;;0.00;0.00;;;;;20.57;47.66;101448.06;4939174;28;53713;-72
2023/12/22 13:37:30;;;;;;;;;1.00;0.00;;;;;20.65;47.67;101464.94;4939768;28;45374;-69
2023/12/22 13:39:56;;;;;;;;;0.00;0.00;;;;;20.67;47.53;101444.47;4939652;28;45357;-68
2023/12/22 13:42:21;;;;;;;;;0.33;0.33;;;;;20.59;47.54;101450.53;4939527;28;46682;-71
2023/12/22 13:44:49;;;;;;;;;0.00;0.00;;;;;20.67;47.43;101455.88;4939685;28;45445;-70
2023/12/22 13:47:20;;;;;;;;;0.00;0.00;;;;;20.68;47.19;101456.72;4939823;28;45461;-71
2023/12/22 13:49:46;;;;;;;;;0.00;0.00;;;;;20.68;47.32;101457.56;4939395;28;45231;-70
2023/12/22 13:52:28;;;;;;;;;0.33;0.00;;;;;20.62;47.60;101442.31;4939152;28;46174;-71
2023/12/22 13:54:56;;;;;;;;;1.67;0.00;;;;;20.69;47.52;101450.41;4939545;28;45421;-71
2023/12/22 13:57:22;;;;;;;;;1.00;1.00;;;;;20.69;47.75;101442.50;4939372;28;45266;-71
2023/12/22 13:59:48;;;;;;;;;1.00;0.67;;;;;20.69;47.71;101451.25;4938002;28;45283;-71
2023/12/22 14:02:13;;;;;;;;;0.67;0.67;;;;;20.66;47.62;101443.63;4939216;28;46134;-71
2023/12/22 14:04:38;;;;;;;;;0.00;0.00;;;;;20.67;47.61;101442.66;4939161;28;45415;-71
2023/12/22 14:07:04;;;;;;;;;0.00;0.00;;;;;20.65;47.38;101439.34;4939495;28;45348;-70
2023/12/22 14:09:32;;;;;;;;;1.00;0.00;;;;;20.67;47.77;101455.88;4939030;28;45361;-72
2023/12/22 14:11:58;;;;;;;;;0.67;0.00;;;;;20.67;47.30;101458.53;4938847;28;47047;-71
2023/12/22 14:14:23;;;;;;;;;0.33;0.00;;;;;20.66;47.25;101456.84;4939365;28;45347;-70
2023/12/22 14:16:48;;;;;;;;;1.67;0.00;;;;;20.66;47.61;101467.44;4939013;28;45451;-71
2023/12/22 14:19:14;;;;;;;;;0.33;0.33;;;;;20.66;47.62;101472.72;4939001;28;45455;-70
2023/12/22 14:21:39;;;;;;;;;1.00;0.00;;;;;20.67;47.38;101462.97;4938813;28;45459;-71
2023/12/22 14:24:05;;;;;;;;;0.00;0.00;;;;;20.66;47.40;101485.13;4939076;28;45353;-70
2023/12/22 14:26:30;;;;;;;;;0.00;0.00;;;;;20.65;47.64;101460.50;4937656;28;45296;-70
2023/12/22 14:28:55;;;;;;;;;0.33;0.33;;;;;20.64;47.70;101477.34;4938060;28;52088;-70
2023/12/22 14:31:21;;;;;;;;;0.00;0.00;;;;;20.63;47.88;101483.63;4938547;28;60655;-71
2023/12/22 14:33:46;;;;;;;;;0.00;0.00;;;;;20.65;47.72;101488.75;4938636;28;45361;-70
2023/12/22 14:36:11;;;;;;;;;0.33;0.00;;;;;20.65;47.33;101486.09;4938862;28;45417;-71
2023/12/22 14:38:37;;;;;;;;;1.00;0.00;;;;;20.64;47.35;101485.28;4939107;28;45434;-71
2023/12/22 14:41:02;;;;;;;;;3.33;0.67;;;;;20.64;47.26;101487.91;4938915;28;46153;-71
2023/12/22 14:43:27;;;;;;;;;0.00;0.00;;;;;20.63;47.58;101492.38;4937206;28;45403;-71
2023/12/22 14:45:53;;;;;;;;;0.00;0.00;;;;;20.64;47.48;101506.41;4938117;28;63929;-69
2023/12/22 14:48:18;;;;;;;;;0.00;0.00;;;;;20.65;47.62;101504.63;4938396;28;45327;-70
2023/12/22 14:50:43;;;;;;;;;2.00;1.00;;;;;20.62;47.50;101503.09;4938713;28;46330;-71
2023/12/22 14:53:08;;;;;;;;;0.00;0.00;;;;;20.66;47.32;101501.81;4938501;28;51946;-71
2023/12/22 14:55:34;;;;;;;;;0.00;0.00;;;;;20.67;47.49;101508.75;4938756;28;45310;-71
2023/12/22 14:57:59;;;;;;;;;0.67;0.00;;;;;20.63;47.46;101504.78;4937681;28;64924;-69
2023/12/22 15:00:24;;;;;;;;;0.33;0.33;;;;;20.64;47.51;101519.66;4938031;28;56609;-69
2023/12/22 15:02:50;;;;;;;;;0.33;0.00;;;;;20.69;47.08;101524.47;4937767;28;45446;-69
2023/12/22 15:05:15;;;;;;;;;2.00;0.00;;;;;20.68;47.31;101528.09;4938678;28;45318;-70
2023/12/22 15:07:40;;;;;;;;;0.67;0.00;;;;;20.68;47.29;101525.47;4938114;28;53407;-71
2023/12/22 15:10:06;;;;;;;;;0.33;0.00;;;;;20.69;47.57;101548.25;4938086;28;52272;-71
2023/12/22 15:12:36;;;;;;;;;0.00;0.00;;;;;20.59;47.37;101521.91;4938347;28;45411;-69
2023/12/22 15:15:02;;;;;;;;;0.00;0.00;;;;;20.69;47.38;101543.81;4938413;28;45330;-71
2023/12/22 15:17:28;;;;;;;;;1.00;0.67;;;;;20.69;47.68;101553.56;4937552;28;45450;-71
2023/12/22 15:19:54;;;;;;;;;1.00;1.00;;;;;20.67;47.45;101545.78;4938088;28;45932;-71
2023/12/22 15:22:19;;;;;;;;;0.67;0.00;;;;;20.67;47.43;101556.34;4938126;28;45366;-71
2023/12/22 15:24:44;;;;;;;;;0.33;0.33;;;;;20.66;47.34;101545.94;4938452;28;45392;-71
2023/12/22 15:27:11;;;;;;;;;0.00;0.00;;;;;20.66;47.39;101554.69;4938281;28;45350;-71
2023/12/22 15:29:36;;;;;;;;;2.67;0.00;;;;;20.66;47.66;101556.53;4937899;28;45425;-71
2023/12/22 15:32:01;;;;;;;;;0.00;0.00;;;;;20.65;47.38;101557.50;4937529;28;45374;-71
2023/12/22 15:34:27;;;;;;;;;0.00;0.00;;;;;20.65;47.00;101576.84;4938322;28;45433;-70
2023/12/22 15:36:53;;;;;;;;;3.33;0.67;;;;;20.56;47.48;101565.34;4938207;28;45316;-71
2023/12/22 15:39:21;;;;;;;;;0.00;0.00;;;;;20.59;47.67;101575.63;4936665;28;45424;-70
2023/12/22 15:41:50;;;;;;;;;0.00;0.00;;;;;20.62;47.50;101582.44;4938005;28;45363;-70
2023/12/22 15:44:15;;;;;;;;;0.67;0.67;;;;;20.61;47.11;101575.47;4937842;28;45349;-70
2023/12/22 15:46:41;;;;;;;;;0.33;0.00;;;;;20.67;47.31;101582.81;4937394;28;45434;-71
2023/12/22 15:49:06;;;;;;;;;0.33;0.33;;;;;20.67;47.13;101569.59;4937864;28;45338;-69
2023/12/22 15:51:31;;;;;;;;;0.67;0.33;;;;;20.68;47.42;101578.34;4937744;28;45353;-71
2023/12/22 15:53:57;;;;;;;;;0.00;0.00;;;;;20.66;47.56;101570.56;4937814;28;45460;-71
2023/12/22 15:56:22;;;;;;;;;0.67;0.00;;;;;20.66;47.25;101583.78;4937801;28;45478;-70
2023/12/22 15:58:48;;;;;;;;;0.33;0.00;;;;;20.66;47.37;101583.78;4937542;28;46294;-71
2023/12/22 16:01:14;;;;;;;;;2.67;0.67;;;;;20.67;47.18;101574.03;4937180;28;45256;-71
2023/12/22 16:03:41;;;;;;;;;2.33;0.00;;;;;20.67;47.41;101566.94;4937330;28;45275;-71
2023/12/22 16:06:07;;;;;;;;;0.00;0.00;;;;;20.68;46.98;101581.00;4937830;28;45416;-71
2023/12/22 16:08:35;;;;;;;;;2.00;0.00;;;;;20.67;47.49;101580.16;4937548;28;45367;-71
2023/12/22 16:11:04;;;;;;;;;0.00;0.00;;;;;20.67;47.18;101576.69;4937378;28;45542;-71
2023/12/22 16:13:29;;;;;;;;;0.67;0.67;;;;;20.62;47.20;101574.50;4937423;28;45365;-71
2023/12/22 16:15:56;;;;;;;;;0.00;0.00;;;;;20.65;47.26;101573.34;4937034;28;45402;-71
2023/12/22 16:18:22;;;;;;;;;0.00;0.00;;;;;20.67;47.46;101581.97;4937024;28;46435;-71
2023/12/22 16:20:47;;;;;;;;;1.67;0.67;;;;;20.65;47.23;101586.59;4937285;28;45376;-71
2023/12/22 16:23:12;;;;;;;;;0.67;0.67;;;;;20.65;47.34;101570.72;4935661;28;52857;-71
2023/12/22 16:25:38;;;;;;;;;1.33;0.33;;;;;20.64;47.05;101580.47;4937449;28;45270;-71
2023/12/22 16:28:03;;;;;;;;;1.33;0.00;;;;;20.64;47.47;101569.88;4937020;28;54238;-70
2023/12/22 16:30:28;;;;;;;;;0.67;0.00;;;;;20.63;47.31;101571.69;4936685;28;45418;-71
2023/12/22 16:32:54;;;;;;;;;0.00;0.00;;;;;20.63;47.27;101558.47;4937295;28;45676;-70
2023/12/22 16:35:19;;;;;;;;;0.67;0.33;;;;;20.63;47.17;101558.47;4937211;28;45386;-71
2023/12/22 16:37:46;;;;;;;;;0.67;0.33;;;;;20.62;47.35;101551.53;4936942;28;51368;-71
2023/12/22 16:40:12;;;;;;;;;0.00;0.00;;;;;20.63;47.37;101565.59;4936901;28;45421;-71
2023/12/22 16:42:38;;;;;;;;;2.33;0.00;;;;;20.65;47.39;101568.06;4936872;28;45342;-71
2023/12/22 16:45:05;;;;;;;;;0.00;0.00;;;;;20.66;47.48;101569.75;4936714;28;45342;-71
2023/12/22 16:47:31;;;;;;;;;0.00;0.00;;;;;20.60;47.12;101568.53;4936887;28;46198;-71
2023/12/22 16:49:56;;;;;;;;;1.67;0.00;;;;;20.68;47.30;101586.28;4936978;28;45295;-71
2023/12/22 16:52:22;;;;;;;;;0.67;0.33;;;;;20.66;47.32;101581.13;4940068;28;45758;-71
2023/12/22 16:54:47;;;;;;;;;1.00;1.00;;;;;20.67;47.18;101588.09;4939570;28;57567;-71
2023/12/22 16:57:12;;;;;;;;;0.00;0.00;;;;;20.67;47.49;101584.59;4940517;28;46216;-71
2023/12/22 16:59:38;;;;;;;;;0.00;0.00;;;;;20.67;47.06;101595.19;4940114;28;45291;-71
2023/12/22 17:02:03;;;;;;;;;0.67;0.67;;;;;20.67;47.17;101593.38;4940474;28;45370;-71
2023/12/22 17:04:29;;;;;;;;;0.00;0.00;;;;;20.66;47.14;101594.34;4940648;28;45439;-69
2023/12/22 17:06:54;;;;;;;;;0.67;0.00;;;;;20.67;47.11;101601.31;4940479;28;45552;-71
2023/12/22 17:09:21;;;;;;;;;2.67;0.33;;;;;20.61;47.33;101594.81;4940230;28;45373;-71
2023/12/22 17:11:46;;;;;;;;;0.33;0.00;;;;;20.67;47.13;101603.94;4940552;28;45366;-71
2023/12/22 17:14:12;;;;;;;;;1.33;0.33;;;;;20.61;47.17;101596.63;4939876;28;45390;-71
2023/12/22 17:16:38;;;;;;;;;0.00;0.00;;;;;20.65;47.03;101605.94;4940255;28;45413;-69
2023/12/22 17:19:03;;;;;;;;;0.00;0.00;;;;;20.66;47.15;101609.41;4940279;28;45344;-69
2023/12/22 17:21:28;;;;;;;;;1.00;0.00;;;;;20.55;47.40;101598.09;4938954;28;45324;-73
2023/12/22 17:23:54;;;;;;;;;0.00;0.00;;;;;20.63;47.27;101607.91;4940450;28;45370;-72
2023/12/22 17:26:19;;;;;;;;;0.67;0.00;;;;;20.63;47.03;101626.41;4939720;28;52043;-71
2023/12/22 17:28:46;;;;;;;;;0.67;0.33;;;;;20.61;47.46;101623.06;4939707;28;45314;-72
2023/12/22 17:31:11;;;;;;;;;1.33;0.00;;;;;20.63;47.48;101629.06;4940220;28;45547;-73
2023/12/22 17:33:38;;;;;;;;;0.00;0.00;;;;;20.63;47.08;101629.06;4939827;28;45422;-73
2023/12/22 17:36:04;;;;;;;;;0.00;0.00;;;;;20.63;47.00;101629.06;4939854;28;46242;-75
2023/12/22 17:38:29;;;;;;;;;3.00;0.33;;;;;20.62;47.05;101635.31;4939890;28;45458;-71
2023/12/22 17:40:55;;;;;;;;;0.67;0.00;;;;;20.57;47.23;101633.13;4931442;28;45388;-71
2023/12/22 17:43:20;;;;;;;;;1.33;0.33;;;;;20.65;47.19;101650.03;4919780;28;56519;-73
2023/12/22 17:45:45;;;;;;;;;0.00;0.00;;;;;20.58;47.04;101640.06;4920566;28;46708;-72
2023/12/22 17:48:11;;;;;;;;;0.00;0.00;;;;;20.63;47.06;101636.97;4920459;28;45498;-71
2023/12/22 17:50:36;;;;;;;;;1.00;0.00;;;;;20.66;47.02;101641.13;4920692;28;45371;-72
2023/12/22 17:53:01;;;;;;;;;2.00;0.00;;;;;20.65;47.26;101635.00;4936422;28;45522;-73
2023/12/22 17:55:27;;;;;;;;;2.00;0.33;;;;;20.66;47.13;101644.59;4939413;28;46092;-72
2023/12/22 17:57:52;;;;;;;;;0.33;0.00;;;;;20.61;47.23;101639.75;4939232;28;45396;-72
2023/12/22 18:00:18;;;;;;;;;0.00;0.00;;;;;20.67;47.18;101653.34;4939313;28;45413;-73
2023/12/22 18:02:43;;;;;;;;;0.00;0.00;;;;;20.67;47.34;101666.59;4937619;28;45513;-72
2023/12/22 18:05:08;;;;;;;;;2.67;0.67;;;;;20.69;47.22;101686.59;4939205;28;46156;-73
2023/12/22 18:07:34;;;;;;;;;0.00;0.00;;;;;20.70;47.32;101693.56;4939076;28;57455;-72
2023/12/22 18:09:59;;;;;;;;;0.00;0.00;;;;;20.70;47.53;101704.16;4939469;28;45487;-72
2023/12/22 18:12:25;;;;;;;;;0.67;0.67;;;;;20.69;47.39;101718.34;4939268;28;45200;-72
2023/12/22 18:14:50;;;;;;;;;0.00;0.00;;;;;20.69;47.52;101728.06;4938090;28;47287;-72
2023/12/22 18:17:16;;;;;;;;;0.33;0.33;;;;;20.70;47.14;101724.47;4939451;28;45465;-72
2023/12/22 18:19:41;;;;;;;;;0.00;0.00;;;;;20.65;47.40;101727.56;4938281;28;45316;-72
2023/12/22 18:22:07;;;;;;;;;0.00;0.00;;;;;20.69;47.56;101731.56;4939287;28;45296;-72
2023/12/22 18:24:32;;;;;;;;;0.00;0.00;;;;;20.63;47.59;101722.41;4939161;28;47200;-72
2023/12/22 18:26:57;;;;;;;;;0.33;0.00;;;;;20.66;47.62;101725.75;4938752;28;45320;-72
2023/12/22 18:29:23;;;;;;;;;1.00;1.00;;;;;20.68;47.48;101731.72;4939327;28;45394;-71
2023/12/22 18:31:49;;;;;;;;;2.67;0.67;;;;;20.66;47.53;101739.78;4939343;28;45331;-72
2023/12/22 18:34:14;;;;;;;;;0.00;0.00;;;;;20.62;47.50;101727.84;4938952;28;46331;-72
2023/12/22 18:36:42;;;;;;;;;1.67;0.00;;;;;20.67;47.18;101725.59;4939044;28;45461;-71
2023/12/22 18:39:07;;;;;;;;;0.67;0.00;;;;;20.67;47.23;101724.75;4939137;28;45409;-71
2023/12/22 18:41:34;;;;;;;;;0.00;0.00;;;;;20.67;47.66;101714.19;4938741;28;45453;-72
2023/12/22 18:44:00;;;;;;;;;2.00;0.33;;;;;20.59;47.25;101701.72;4938928;28;46022;-72
2023/12/22 18:46:25;;;;;;;;;0.00;0.00;;;;;20.61;47.38;101697.94;4938848;28;45405;-72
2023/12/22 18:48:51;;;;;;;;;0.67;0.00;;;;;20.67;47.19;101708.88;4938693;28;47505;-72
2023/12/22 18:51:18;;;;;;;;;1.67;0.00;;;;;20.55;47.57;101703.84;4939086;28;45441;-72
2023/12/22 18:53:43;;;;;;;;;1.00;1.00;;;;;20.65;47.34;101730.22;4938410;28;46815;-72
2023/12/22 18:56:09;;;;;;;;;0.00;0.00;;;;;20.37;47.16;101687.94;4938671;28;45421;-72
2023/12/22 18:58:36;;;;;;;;;1.00;1.00;;;;;20.64;47.01;101741.75;4938740;28;45415;-72
2023/12/22 19:01:02;;;;;;;;;1.33;1.33;;;;;20.65;47.16;101746.06;4938646;28;45549;-72
2023/12/22 19:03:28;;;;;;;;;0.67;0.67;;;;;20.59;47.21;101747.50;4938240;28;46298;-72
2023/12/22 19:05:53;;;;;;;;;0.33;0.00;;;;;20.63;47.61;101745.41;4938645;28;45343;-72
2023/12/22 19:08:19;;;;;;;;;0.67;0.00;;;;;20.55;47.25;101737.38;4938431;28;45376;-72
2023/12/22 19:10:44;;;;;;;;;2.00;0.33;;;;;20.63;47.53;101750.69;4938149;28;54501;-72
2023/12/22 19:13:09;;;;;;;;;0.00;0.00;;;;;20.61;47.29;101748.16;4938235;28;48209;-71
2023/12/22 19:15:35;;;;;;;;;2.67;0.00;;;;;20.59;47.45;101760.72;4938594;28;45310;-72
2023/12/22 19:18:00;;;;;;;;;0.00;0.00;;;;;20.51;47.30;101755.31;4938634;28;45389;-72
2023/12/22 19:20:25;;;;;;;;;0.00;0.00;;;;;20.51;47.57;101766.72;4938687;28;45443;-72